createdAt,value
2022-10-16T00:00:48.494Z,36.68
2022-10-16T00:03:14.865Z,36.63
2022-10-16T00:05:41.234Z,36.68
2022-10-16T00:08:07.610Z,36.78
2022-10-16T00:10:33.978Z,36.73
2022-10-16T00:13:00.342Z,36.65
2022-10-16T00:15:26.707Z,36.80
2022-10-16T00:17:55.054Z,36.77
2022-10-16T00:20:19.470Z,36.74
2022-10-16T00:22:45.825Z,36.76
2022-10-16T00:25:12.177Z,36.47
2022-10-16T00:27:38.631Z,36.47
2022-10-16T00:30:04.942Z,36.84
2022-10-16T00:32:31.275Z,36.77
2022-10-16T00:34:57.610Z,36.76
2022-10-16T00:37:23.960Z,36.77
2022-10-16T00:39:50.307Z,36.79
2022-10-16T00:42:16.652Z,36.81
2022-10-16T00:44:42.998Z,36.88
2022-10-16T00:47:09.359Z,36.79
2022-10-16T00:49:35.699Z,36.84
2022-10-16T00:52:02.041Z,36.90
2022-10-16T00:54:28.381Z,36.85
2022-10-16T00:56:54.752Z,36.86
2022-10-16T00:59:21.087Z,36.88
2022-10-16T01:01:47.730Z,36.92
2022-10-16T01:04:14.083Z,36.90
2022-10-16T01:06:40.424Z,36.88
2022-10-16T01:09:06.775Z,36.92
2022-10-16T01:11:33.152Z,36.93
2022-10-16T01:13:59.495Z,36.93
2022-10-16T01:16:25.840Z,37.00
2022-10-16T01:18:52.215Z,36.99
2022-10-16T01:21:18.557Z,36.99
2022-10-16T01:23:44.901Z,36.99
2022-10-16T01:26:11.257Z,36.86
2022-10-16T01:28:37.663Z,36.86
2022-10-16T01:31:03.938Z,37.05
2022-10-16T01:33:30.277Z,37.04
2022-10-16T01:35:56.638Z,37.06
2022-10-16T01:38:22.980Z,37.08
2022-10-16T01:40:49.332Z,37.11
2022-10-16T01:43:15.719Z,37.07
2022-10-16T01:45:42.054Z,37.11
2022-10-16T01:48:08.404Z,37.14
2022-10-16T01:50:34.766Z,37.13
2022-10-16T01:53:01.102Z,37.14
2022-10-16T01:55:27.453Z,37.12
2022-10-16T01:57:53.793Z,37.15
2022-10-16T02:00:20.141Z,37.25
2022-10-16T02:02:46.535Z,37.19
2022-10-16T02:05:12.887Z,37.15
2022-10-16T02:07:39.235Z,37.21
2022-10-16T02:10:05.583Z,37.23
2022-10-16T02:12:33.071Z,37.31
2022-10-16T02:14:59.454Z,37.33
2022-10-16T02:17:25.794Z,37.30
2022-10-16T02:19:52.188Z,37.32
2022-10-16T02:22:18.501Z,37.26
2022-10-16T02:24:44.855Z,37.24
2022-10-16T02:27:11.198Z,37.34
2022-10-16T02:29:37.538Z,37.37
2022-10-16T02:32:03.879Z,37.39
2022-10-16T02:34:30.249Z,37.31
2022-10-16T02:36:56.579Z,37.32
2022-10-16T02:39:22.928Z,37.30
2022-10-16T02:41:49.271Z,37.32
2022-10-16T02:44:15.626Z,37.31
2022-10-16T02:46:41.970Z,37.36
2022-10-16T02:49:08.328Z,37.37
2022-10-16T02:51:34.665Z,37.38
2022-10-16T02:54:01.007Z,37.40
2022-10-16T02:56:27.367Z,37.37
2022-10-16T02:58:53.711Z,37.41
2022-10-16T03:01:20.131Z,37.45
2022-10-16T03:03:46.420Z,37.46
2022-10-16T03:06:12.764Z,37.54
2022-10-16T03:08:39.119Z,37.74
2022-10-16T03:11:05.467Z,37.74
2022-10-16T03:13:31.808Z,37.46
2022-10-16T03:15:58.180Z,37.51
2022-10-16T03:18:24.547Z,37.46
2022-10-16T03:20:50.886Z,37.51
2022-10-16T03:23:17.354Z,37.51
2022-10-16T03:25:43.652Z,37.50
2022-10-16T03:28:09.996Z,37.62
2022-10-16T03:30:36.355Z,37.65
2022-10-16T03:33:02.712Z,37.51
2022-10-16T03:35:29.036Z,37.64
2022-10-16T03:37:55.392Z,37.59
2022-10-16T03:40:21.746Z,37.62
2022-10-16T03:42:48.098Z,37.58
2022-10-16T03:45:14.453Z,37.69
2022-10-16T03:47:40.833Z,37.63
2022-10-16T03:50:07.176Z,37.69
2022-10-16T03:52:33.523Z,37.64
2022-10-16T03:54:59.891Z,37.64
2022-10-16T03:57:26.333Z,37.60
2022-10-16T03:59:52.572Z,37.60
2022-10-16T04:02:18.918Z,37.67
2022-10-16T04:04:45.265Z,37.70
2022-10-16T04:07:11.611Z,37.67
2022-10-16T04:09:37.950Z,37.65
2022-10-16T04:12:04.351Z,37.61
2022-10-16T04:14:30.701Z,37.66
2022-10-16T04:16:57.054Z,37.67
2022-10-16T04:19:23.391Z,37.81
2022-10-16T04:21:49.792Z,37.81
2022-10-16T04:24:16.165Z,37.74
2022-10-16T04:26:42.513Z,37.78
2022-10-16T04:29:08.862Z,37.80
2022-10-16T04:31:35.213Z,37.75
2022-10-16T04:34:01.563Z,37.75
2022-10-16T04:36:29.281Z,37.78
2022-10-16T04:38:54.257Z,37.76
2022-10-16T04:41:20.635Z,37.74
2022-10-16T04:43:47.989Z,37.71
2022-10-16T04:46:14.341Z,37.76
2022-10-16T04:48:40.688Z,37.73
2022-10-16T04:51:07.072Z,37.74
2022-10-16T04:53:33.411Z,37.79
2022-10-16T04:55:59.799Z,37.80
2022-10-16T04:58:26.141Z,37.85
2022-10-16T05:00:52.500Z,37.88
2022-10-16T05:03:19.013Z,37.81
2022-10-16T05:05:45.199Z,37.88
2022-10-16T05:08:11.551Z,37.83
2022-10-16T05:10:37.902Z,37.86
2022-10-16T05:13:04.249Z,37.86
2022-10-16T05:15:30.726Z,37.81
2022-10-16T05:17:57.026Z,37.86
2022-10-16T05:20:23.383Z,37.79
2022-10-16T05:22:49.721Z,37.80
2022-10-16T05:25:16.065Z,37.83
2022-10-16T05:27:42.405Z,37.85
2022-10-16T05:30:11.589Z,37.77
2022-10-16T05:32:35.096Z,37.76
2022-10-16T05:35:01.446Z,37.76
2022-10-16T05:37:28.220Z,37.69
2022-10-16T05:39:54.137Z,37.71
2022-10-16T05:42:20.469Z,37.69
2022-10-16T05:44:46.821Z,37.78
2022-10-16T05:47:13.185Z,37.76
2022-10-16T05:49:41.349Z,37.70
2022-10-16T05:52:05.916Z,37.71
2022-10-16T05:54:32.261Z,37.70
2022-10-16T05:56:58.604Z,37.68
2022-10-16T05:59:24.952Z,37.72
2022-10-16T06:01:51.304Z,37.71
2022-10-16T06:04:17.652Z,37.72
2022-10-16T06:06:44.016Z,37.70
2022-10-16T06:09:10.364Z,37.66
2022-10-16T06:11:36.714Z,37.71
2022-10-16T06:14:03.065Z,37.79
2022-10-16T06:16:29.477Z,37.96
2022-10-16T06:18:55.823Z,37.97
2022-10-16T06:21:22.193Z,38.00
2022-10-16T06:23:48.547Z,38.02
2022-10-16T06:26:14.878Z,38.04
2022-10-16T06:28:41.285Z,38.12
2022-10-16T06:31:08.512Z,38.02
2022-10-16T06:33:33.920Z,37.98
2022-10-16T06:36:00.276Z,37.80
2022-10-16T06:38:26.619Z,37.91
2022-10-16T06:40:53.003Z,37.71
2022-10-16T06:43:19.346Z,37.62
2022-10-16T06:45:45.697Z,37.57
2022-10-16T06:48:12.044Z,37.53
2022-10-16T06:50:38.393Z,37.50
2022-10-16T06:53:04.757Z,37.48
2022-10-16T06:55:31.103Z,37.47
2022-10-16T06:57:57.452Z,37.43
2022-10-16T07:02:50.182Z,37.43
2022-10-16T07:05:16.528Z,37.44
2022-10-16T07:07:42.875Z,37.44
2022-10-16T07:10:09.220Z,37.42
2022-10-16T07:12:35.572Z,37.44
2022-10-16T07:15:01.926Z,37.40
2022-10-16T07:17:28.266Z,37.40
2022-10-16T07:19:54.614Z,37.36
2022-10-16T07:22:20.961Z,37.42
2022-10-16T07:24:51.780Z,37.38
2022-10-16T07:27:13.692Z,37.43
2022-10-16T07:29:40.038Z,37.37
2022-10-16T07:32:06.393Z,37.35
2022-10-16T07:34:32.737Z,37.37
2022-10-16T07:36:59.082Z,37.33
2022-10-16T07:39:25.423Z,37.34
2022-10-16T07:41:54.200Z,37.32
2022-10-16T07:44:20.542Z,37.29
2022-10-16T07:46:46.920Z,37.31
2022-10-16T07:49:13.261Z,37.29
2022-10-16T07:51:39.666Z,37.27
2022-10-16T07:54:06.011Z,37.32
2022-10-16T07:56:32.345Z,37.31
2022-10-16T07:58:58.715Z,37.27
2022-10-16T08:01:25.106Z,37.30
2022-10-16T08:03:51.488Z,37.28
2022-10-16T08:06:19.682Z,37.21
2022-10-16T08:08:44.094Z,37.25
2022-10-16T08:11:10.438Z,37.27
2022-10-16T08:13:36.794Z,37.25
2022-10-16T08:16:03.137Z,37.31
2022-10-16T08:18:29.497Z,37.27
2022-10-16T08:20:56.172Z,37.27
2022-10-16T08:23:22.548Z,37.23
2022-10-16T08:25:48.887Z,37.23
2022-10-16T08:28:15.236Z,37.20
2022-10-16T08:30:41.572Z,37.23
2022-10-16T08:33:07.914Z,37.22
2022-10-16T08:35:34.261Z,37.20
2022-10-16T08:38:00.611Z,37.19
2022-10-16T08:40:26.963Z,37.19
2022-10-16T08:42:53.315Z,37.15
2022-10-16T08:45:19.655Z,37.19
2022-10-16T08:47:46.000Z,37.17
2022-10-16T08:50:12.350Z,37.17
2022-10-16T08:52:38.700Z,37.17
2022-10-16T08:55:05.046Z,37.14
2022-10-16T08:57:31.401Z,37.16
2022-10-16T08:59:57.775Z,37.16
2022-10-16T09:02:24.452Z,37.12
2022-10-16T09:04:55.601Z,37.12
2022-10-16T09:07:16.869Z,37.11
2022-10-16T09:09:43.224Z,36.90
2022-10-16T09:12:09.592Z,36.86
2022-10-16T09:14:35.938Z,36.69
2022-10-16T09:17:02.322Z,36.37
2022-10-16T09:19:28.638Z,36.18
2022-10-16T09:21:54.993Z,36.04
2022-10-16T09:24:23.362Z,35.98
2022-10-16T09:26:47.693Z,35.89
2022-10-16T09:29:14.135Z,35.76
2022-10-16T09:31:42.468Z,35.77
2022-10-16T09:34:06.728Z,35.60
2022-10-16T09:36:33.114Z,35.61
2022-10-16T09:38:59.457Z,35.44
2022-10-16T09:41:25.811Z,35.37
2022-10-16T09:43:52.163Z,35.17
2022-10-16T09:46:18.522Z,35.12
2022-10-16T09:48:44.882Z,35.06
2022-10-16T09:51:12.439Z,34.91
2022-10-16T09:53:37.581Z,34.86
2022-10-16T09:56:03.930Z,34.70
2022-10-16T09:58:30.279Z,34.71
2022-10-16T10:00:56.624Z,34.66
2022-10-16T10:03:22.961Z,34.62
2022-10-16T10:05:49.355Z,34.49
2022-10-16T10:08:15.702Z,34.47
2022-10-16T10:10:42.048Z,34.44
2022-10-16T10:13:08.384Z,34.36
2022-10-16T10:15:34.744Z,34.26
2022-10-16T10:18:01.080Z,34.20
2022-10-16T10:20:27.425Z,34.17
2022-10-16T10:22:53.787Z,34.09
2022-10-16T10:25:20.135Z,34.03
2022-10-16T10:27:46.486Z,33.93
2022-10-16T10:30:12.897Z,33.86
2022-10-16T10:32:39.168Z,33.89
2022-10-16T10:35:05.512Z,33.64
2022-10-16T10:37:31.872Z,33.70
2022-10-16T10:39:58.217Z,33.57
2022-10-16T10:42:24.877Z,33.41
2022-10-16T10:44:50.922Z,33.35
2022-10-16T10:47:17.264Z,33.23
2022-10-16T10:49:46.667Z,33.13
2022-10-16T10:52:10.066Z,32.99
2022-10-16T10:54:36.404Z,32.90
2022-10-16T10:57:02.744Z,32.82
2022-10-16T10:59:29.139Z,32.69
2022-10-16T11:01:55.518Z,32.57
2022-10-16T11:04:21.869Z,32.43
2022-10-16T11:06:48.251Z,32.28
2022-10-16T11:09:14.587Z,32.17
2022-10-16T11:11:40.923Z,32.03
2022-10-16T11:14:07.275Z,31.89
2022-10-16T11:16:33.645Z,31.79
2022-10-16T11:19:00.029Z,31.67
2022-10-16T11:21:30.340Z,31.54
2022-10-16T11:23:52.722Z,31.41
2022-10-16T11:26:19.067Z,31.29
2022-10-16T11:28:45.457Z,31.19
2022-10-16T11:31:11.767Z,31.17
2022-10-16T11:33:38.104Z,31.18
2022-10-16T11:36:04.456Z,31.18
2022-10-16T11:38:30.795Z,31.34
2022-10-16T11:40:57.133Z,31.34
2022-10-16T11:43:23.480Z,30.63
2022-10-16T11:45:49.830Z,30.53
2022-10-16T11:48:16.182Z,30.47
2022-10-16T11:50:42.569Z,30.32
2022-10-16T11:53:08.907Z,30.22
2022-10-16T11:55:35.245Z,30.18
2022-10-16T11:58:01.598Z,30.10
2022-10-16T12:00:27.975Z,29.92
2022-10-16T12:02:54.319Z,29.90
2022-10-16T12:05:20.661Z,29.61
2022-10-16T12:07:47.013Z,29.61
2022-10-16T12:10:13.354Z,29.60
2022-10-16T12:12:40.052Z,29.48
2022-10-16T12:15:19.587Z,29.34
2022-10-16T12:17:32.448Z,29.37
2022-10-16T12:19:58.794Z,29.24
2022-10-16T12:22:25.371Z,29.18
2022-10-16T12:24:51.458Z,29.03
2022-10-16T12:27:17.808Z,29.03
2022-10-16T12:29:44.158Z,28.88
2022-10-16T12:32:13.043Z,28.77
2022-10-16T12:34:36.863Z,28.72
2022-10-16T12:37:03.247Z,28.70
2022-10-16T12:39:29.590Z,28.56
2022-10-16T12:41:55.937Z,28.47
2022-10-16T12:44:22.287Z,28.35
2022-10-16T12:46:48.625Z,28.20
2022-10-16T12:49:15.017Z,28.12
2022-10-16T12:51:41.366Z,28.08
2022-10-16T12:54:07.712Z,27.98
2022-10-16T12:56:34.088Z,27.85
2022-10-16T12:59:00.433Z,27.77
2022-10-16T13:01:26.807Z,27.72
2022-10-16T13:03:53.145Z,27.62
2022-10-16T13:06:19.483Z,27.63
2022-10-16T13:08:45.842Z,27.51
2022-10-16T13:11:12.189Z,27.51
2022-10-16T13:13:38.551Z,27.51
2022-10-16T13:16:04.894Z,27.48
2022-10-16T13:18:31.235Z,27.47
2022-10-16T13:20:57.569Z,27.42
2022-10-16T13:23:23.931Z,27.47
2022-10-16T13:25:50.285Z,27.38
2022-10-16T13:28:16.659Z,27.25
2022-10-16T13:30:43.035Z,26.47
2022-10-16T13:33:09.360Z,26.18
2022-10-16T13:38:16.030Z,26.09
2022-10-16T13:40:42.356Z,26.10
2022-10-16T13:43:08.697Z,26.19
2022-10-16T13:45:35.035Z,26.10
2022-10-16T13:48:02.580Z,26.18
2022-10-16T13:50:27.726Z,26.22
2022-10-16T13:52:54.067Z,26.29
2022-10-16T13:55:20.410Z,26.36
2022-10-16T13:57:46.750Z,26.32
2022-10-16T14:00:13.088Z,26.43
2022-10-16T14:02:39.429Z,26.46
2022-10-16T14:05:05.770Z,26.45
2022-10-16T14:07:32.116Z,26.35
2022-10-16T14:09:58.456Z,26.54
2022-10-16T14:12:27.991Z,26.63
2022-10-16T14:14:51.140Z,26.48
2022-10-16T14:17:17.497Z,26.69
2022-10-16T14:19:43.837Z,27.09
2022-10-16T14:22:10.182Z,27.27
2022-10-16T14:24:36.524Z,27.70
2022-10-16T14:27:02.900Z,27.85
2022-10-16T14:29:29.230Z,28.02
2022-10-16T14:31:55.576Z,28.25
2022-10-16T14:34:21.913Z,28.47
2022-10-16T14:36:48.261Z,28.90
2022-10-16T14:39:14.598Z,29.07
2022-10-16T14:41:40.940Z,29.44
2022-10-16T14:44:07.283Z,29.51
2022-10-16T14:46:33.636Z,29.74
2022-10-16T14:48:59.981Z,29.78
2022-10-16T14:51:26.321Z,29.93
2022-10-16T14:53:55.470Z,30.09
2022-10-16T14:56:19.002Z,30.19
2022-10-16T14:58:45.342Z,30.37
2022-10-16T15:01:11.705Z,30.26
2022-10-16T15:03:38.041Z,30.40
2022-10-16T15:06:04.359Z,30.44
2022-10-16T15:08:30.697Z,30.47
2022-10-16T15:10:57.083Z,30.60
2022-10-16T15:13:23.423Z,30.48
2022-10-16T15:15:49.770Z,30.58
2022-10-16T15:18:16.095Z,30.61
2022-10-16T15:20:42.438Z,30.55
2022-10-16T15:23:08.771Z,30.63
2022-10-16T15:25:35.110Z,30.77
2022-10-16T15:28:01.445Z,30.84
2022-10-16T15:30:27.798Z,30.85
2022-10-16T15:32:54.439Z,30.99
2022-10-16T15:35:20.778Z,31.00
2022-10-16T15:37:47.110Z,31.03
2022-10-16T15:40:13.450Z,31.16
2022-10-16T15:42:39.784Z,31.29
2022-10-16T15:45:06.130Z,31.31
2022-10-16T15:47:32.458Z,31.48
2022-10-16T15:49:58.802Z,31.52
2022-10-16T15:52:25.273Z,31.52
2022-10-16T15:54:54.104Z,31.37
2022-10-16T15:57:17.828Z,31.03
2022-10-16T15:59:44.218Z,30.96
2022-10-16T16:02:10.652Z,30.99
2022-10-16T16:04:43.857Z,31.06
2022-10-16T16:07:03.190Z,31.06
2022-10-16T16:09:29.540Z,31.13
2022-10-16T16:11:55.880Z,31.35
2022-10-16T16:14:22.220Z,31.35
2022-10-16T16:16:48.589Z,31.37
2022-10-16T16:19:14.929Z,31.57
2022-10-16T16:21:41.269Z,31.75
2022-10-16T16:24:07.607Z,31.75
2022-10-16T16:26:33.957Z,31.73
2022-10-16T16:29:00.348Z,32.01
2022-10-16T16:31:26.656Z,31.85
2022-10-16T16:33:52.989Z,31.93
2022-10-16T16:36:19.441Z,32.05
2022-10-16T16:38:45.689Z,32.06
2022-10-16T16:41:12.025Z,32.27
2022-10-16T16:43:38.362Z,32.23
2022-10-16T16:46:04.704Z,32.31
2022-10-16T16:48:31.037Z,32.55
2022-10-16T16:50:57.370Z,32.44
2022-10-16T16:53:23.710Z,32.40
2022-10-16T16:55:50.061Z,32.61
2022-10-16T16:58:16.467Z,32.57
2022-10-16T17:00:56.301Z,32.75
2022-10-16T17:03:09.142Z,32.66
2022-10-16T17:05:35.512Z,32.75
2022-10-16T17:08:01.856Z,32.90
2022-10-16T17:10:28.204Z,32.93
2022-10-16T17:15:20.910Z,33.21
2022-10-16T17:17:47.272Z,33.09
2022-10-16T17:20:13.613Z,33.09
2022-10-16T17:22:39.945Z,33.05
2022-10-16T17:25:06.291Z,33.29
2022-10-16T17:27:32.621Z,33.37
2022-10-16T17:29:58.972Z,33.33
2022-10-16T17:32:25.607Z,33.63
2022-10-16T17:34:52.774Z,33.32
2022-10-16T17:37:18.300Z,33.49
2022-10-16T17:39:44.318Z,33.37
2022-10-16T17:42:10.677Z,33.37
2022-10-16T17:44:36.993Z,33.18
2022-10-16T17:47:03.327Z,33.37
2022-10-16T17:49:29.666Z,33.13
2022-10-16T17:51:56.002Z,33.05
2022-10-16T17:54:22.348Z,32.93
2022-10-16T17:56:48.685Z,32.98
2022-10-16T17:59:15.029Z,33.03
2022-10-16T18:01:41.442Z,32.87
2022-10-16T18:04:07.742Z,32.94
2022-10-16T18:06:34.076Z,32.86
2022-10-16T18:09:00.416Z,32.95
2022-10-16T18:11:26.755Z,32.88
2022-10-16T18:13:53.113Z,32.88
2022-10-16T18:16:19.448Z,32.81
2022-10-16T18:18:45.795Z,32.81
2022-10-16T18:21:12.128Z,32.83
2022-10-16T18:23:38.474Z,32.81
2022-10-16T18:26:04.835Z,32.80
2022-10-16T18:28:31.162Z,32.87
2022-10-16T18:30:57.483Z,32.88
2022-10-16T18:33:23.824Z,32.63
2022-10-16T18:35:50.163Z,32.63
2022-10-16T18:38:16.504Z,32.85
2022-10-16T18:40:42.843Z,32.91
2022-10-16T18:43:09.235Z,32.86
2022-10-16T18:45:35.581Z,32.63
2022-10-16T18:48:01.911Z,32.63
2022-10-16T18:50:28.246Z,32.96
2022-10-16T18:52:54.608Z,32.88
2022-10-16T18:55:20.967Z,32.87
2022-10-16T18:57:47.312Z,32.92
2022-10-16T19:00:13.663Z,32.94
2022-10-16T19:02:40.002Z,33.21
2022-10-16T19:05:06.734Z,33.21
2022-10-16T19:07:32.704Z,33.02
2022-10-16T19:09:59.041Z,33.03
2022-10-16T19:12:25.774Z,32.99
2022-10-16T19:14:51.758Z,33.07
2022-10-16T19:17:18.101Z,33.03
2022-10-16T19:19:44.448Z,32.85
2022-10-16T19:22:10.812Z,32.98
2022-10-16T19:24:37.147Z,32.98
2022-10-16T19:27:03.491Z,33.04
2022-10-16T19:29:29.826Z,32.99
2022-10-16T19:31:56.169Z,33.09
2022-10-16T19:34:22.515Z,33.04
2022-10-16T19:36:48.857Z,33.08
2022-10-16T19:39:15.290Z,33.12
2022-10-16T19:41:41.541Z,33.10
2022-10-16T19:44:07.878Z,33.21
2022-10-16T19:46:34.215Z,33.28
2022-10-16T19:49:00.554Z,33.28
2022-10-16T19:51:26.902Z,33.21
2022-10-16T19:53:53.237Z,33.20
2022-10-16T19:56:19.583Z,33.26
2022-10-16T19:58:45.935Z,32.89
2022-10-16T20:01:12.305Z,33.25
2022-10-16T20:03:38.608Z,33.25
2022-10-16T20:06:04.950Z,33.42
2022-10-16T20:08:31.282Z,33.24
2022-10-16T20:10:57.634Z,33.37
2022-10-16T20:13:23.965Z,33.35
2022-10-16T20:15:50.566Z,33.68
2022-10-16T20:18:16.865Z,33.36
2022-10-16T20:20:43.206Z,33.32
2022-10-16T20:23:09.536Z,33.90
2022-10-16T20:25:35.887Z,33.28
2022-10-16T20:28:02.225Z,33.28
2022-10-16T20:30:28.565Z,33.49
2022-10-16T20:32:54.933Z,33.53
2022-10-16T20:35:21.274Z,33.56
2022-10-16T20:37:47.604Z,33.50
2022-10-16T20:40:13.947Z,33.46
2022-10-16T20:42:40.279Z,33.67
2022-10-16T20:45:06.637Z,33.61
2022-10-16T20:47:32.988Z,33.50
2022-10-16T20:49:59.341Z,33.51
2022-10-16T20:52:25.674Z,33.98
2022-10-16T20:54:52.038Z,33.79
2022-10-16T20:57:18.376Z,33.79
2022-10-16T20:59:44.713Z,33.62
2022-10-16T21:02:13.539Z,33.66
2022-10-16T21:04:37.394Z,33.77
2022-10-16T21:07:03.726Z,33.73
2022-10-16T21:09:30.071Z,33.70
2022-10-16T21:11:56.423Z,33.47
2022-10-16T21:14:22.787Z,33.47
2022-10-16T21:16:49.121Z,33.83
2022-10-16T21:19:15.471Z,33.76
2022-10-16T21:21:41.813Z,33.73
2022-10-16T21:24:11.995Z,33.86
2022-10-16T21:26:34.512Z,33.93
2022-10-16T21:29:00.927Z,33.90
2022-10-16T21:31:27.195Z,33.97
2022-10-16T21:33:53.537Z,33.93
2022-10-16T21:36:19.875Z,33.60
2022-10-16T21:41:12.553Z,33.90
2022-10-16T21:43:38.894Z,34.13
2022-10-16T21:46:05.235Z,34.01
2022-10-16T21:48:31.574Z,34.06
2022-10-16T21:50:57.900Z,34.10
2022-10-16T21:53:24.244Z,34.17
2022-10-16T21:55:50.574Z,34.08
2022-10-16T21:58:16.916Z,34.18
2022-10-16T22:00:43.247Z,34.05
2022-10-16T22:03:09.625Z,34.08
2022-10-16T22:05:35.951Z,34.17
2022-10-16T22:08:02.286Z,33.92
2022-10-16T22:10:28.625Z,34.24
2022-10-16T22:12:54.968Z,34.22
2022-10-16T22:15:21.320Z,34.22
2022-10-16T22:17:47.658Z,34.25
2022-10-16T22:20:13.996Z,34.61
2022-10-16T22:22:40.348Z,34.61
2022-10-16T22:25:06.691Z,34.30
2022-10-16T22:27:33.056Z,34.42
2022-10-16T22:29:59.391Z,34.44
2022-10-16T22:32:25.733Z,34.49
2022-10-16T22:34:52.064Z,34.48
2022-10-16T22:37:18.409Z,34.53
2022-10-16T22:39:44.755Z,35.01
2022-10-16T22:42:11.097Z,35.01
2022-10-16T22:44:37.476Z,34.52
2022-10-16T22:47:03.816Z,34.59
2022-10-16T22:49:30.153Z,34.62
2022-10-16T22:51:56.487Z,34.34
2022-10-16T22:54:22.817Z,34.48
2022-10-16T22:56:49.164Z,34.48
2022-10-16T22:59:15.506Z,34.40
2022-10-16T23:01:41.851Z,34.57
2022-10-16T23:04:08.196Z,34.81
2022-10-16T23:06:34.566Z,34.75
2022-10-16T23:09:00.891Z,34.82
2022-10-16T23:11:27.240Z,34.82
2022-10-16T23:13:53.580Z,34.89
2022-10-16T23:16:19.917Z,34.81
2022-10-16T23:18:46.256Z,34.87
2022-10-16T23:21:12.599Z,34.81
2022-10-16T23:23:38.941Z,34.95
2022-10-16T23:26:05.289Z,34.70
2022-10-16T23:28:31.646Z,34.79
2022-10-16T23:30:57.960Z,34.75
2022-10-16T23:33:24.303Z,34.89
2022-10-16T23:35:50.640Z,34.81
2022-10-16T23:38:16.975Z,34.81
2022-10-16T23:40:43.328Z,34.98
2022-10-16T23:43:09.672Z,34.82
2022-10-16T23:45:36.010Z,34.68
2022-10-16T23:48:03.030Z,34.85
2022-10-16T23:50:29.389Z,34.88
2022-10-16T23:52:55.722Z,34.92
2022-10-16T23:55:22.133Z,34.99
2022-10-16T23:57:48.411Z,34.80
